Time;durP1;ratioP1;P1;durP2;ratioP2;P2;SDS_P1;SDS_P2;PMS_P1;PMS_P2;Temp;Humidity;BMP_temperature;BMP_pressure;BME280_temperature;BME280_humidity;BME280_pressure;Samples;Min_cycle;Max_cycle;Signal;HPM_P1;HPM_P2
2023/12/24 00:01:12;;;;;;;15.13;4.63;;;8.70;99.90;;;;;;5066542;28;20453;-70
2023/12/24 00:03:38;;;;;;;23.48;5.68;;;8.20;99.90;;;;;;5059530;28;20033;-70
2023/12/24 00:06:05;;;;;;;12.98;5.00;;;8.30;99.90;;;;;;5037880;28;20682;-68
2023/12/24 00:08:31;;;;;;;17.88;5.40;;;8.70;99.90;;;;;;5059394;28;20089;-70
2023/12/24 00:10:57;;;;;;;16.02;5.38;;;8.80;99.90;;;;;;5062424;28;20040;-70
2023/12/24 00:13:25;;;;;;;19.95;5.20;;;8.50;99.90;;;;;;5082593;28;20078;-69
2023/12/24 00:15:51;;;;;;;20.55;5.53;;;8.30;99.90;;;;;;5079549;28;20085;-68
2023/12/24 00:18:17;;;;;;;20.80;5.20;;;8.10;99.90;;;;;;5072465;28;20438;-70
2023/12/24 00:20:43;;;;;;;16.52;4.50;;;8.10;99.90;;;;;;5064774;28;20042;-70
2023/12/24 00:23:10;;;;;;;20.80;5.38;;;8.40;99.90;;;;;;5061951;28;20036;-69
2023/12/24 00:25:37;;;;;;;15.50;4.82;;;8.80;99.90;;;;;;5059039;28;20041;-68
2023/12/24 00:28:03;;;;;;;18.25;4.82;;;8.50;99.90;;;;;;5058461;28;20039;-68
2023/12/24 00:30:29;;;;;;;16.67;4.40;;;8.50;99.90;;;;;;5058034;28;20072;-67
2023/12/24 00:32:55;;;;;;;17.60;5.10;;;8.50;99.90;;;;;;5054624;28;20407;-68
2023/12/24 00:35:22;;;;;;;16.73;4.70;;;8.50;99.90;;;;;;5071192;28;20047;-68
2023/12/24 00:37:48;;;;;;;21.75;5.78;;;8.80;99.90;;;;;;5058993;28;20607;-68
2023/12/24 00:40:14;;;;;;;17.83;5.18;;;8.70;99.90;;;;;;5073883;28;20029;-67
2023/12/24 00:42:41;;;;;;;13.57;5.55;;;8.30;99.90;;;;;;5051526;28;20067;-67
2023/12/24 00:45:08;;;;;;;20.25;4.70;;;8.70;99.90;;;;;;5049022;28;20032;-67
2023/12/24 00:47:34;;;;;;;14.57;4.90;;;8.30;99.90;;;;;;5068202;28;20094;-68
2023/12/24 00:49:59;;;;;;;17.75;5.13;;;8.30;99.90;;;;;;5057187;28;20036;-69
2023/12/24 00:52:25;;;;;;;15.27;5.90;;;8.40;99.90;;;;;;5070877;28;20115;-68
2023/12/24 00:54:51;;;;;;;17.77;5.40;;;8.20;99.90;;;;;;5055533;28;20090;-68
2023/12/24 00:57:16;;;;;;;16.27;5.07;;;8.10;99.90;;;;;;5061807;28;20036;-67
2023/12/24 00:59:42;;;;;;;19.85;5.40;;;8.10;99.90;;;;;;5072963;28;20059;-67
2023/12/24 01:02:07;;;;;;;15.15;4.82;;;8.10;99.90;;;;;;5066335;28;20507;-68
2023/12/24 01:04:33;;;;;;;19.05;5.75;;;8.30;99.90;;;;;;5069714;28;20032;-67
2023/12/24 01:06:59;;;;;;;17.05;5.28;;;8.20;99.90;;;;;;5057792;28;20126;-69
2023/12/24 01:09:25;;;;;;;17.80;5.75;;;8.80;99.90;;;;;;5063086;28;20044;-67
2023/12/24 01:11:52;;;;;;;18.10;5.35;;;8.90;99.90;;;;;;5061583;28;20117;-67
2023/12/24 01:14:17;;;;;;;18.20;5.85;;;8.30;99.90;;;;;;5057484;28;20144;-69
2023/12/24 01:16:43;;;;;;;21.80;5.90;;;8.80;99.90;;;;;;5065691;28;20040;-67
2023/12/24 01:19:08;;;;;;;15.52;4.97;;;8.20;99.90;;;;;;5073200;28;20063;-67
2023/12/24 01:21:34;;;;;;;15.50;5.35;;;8.90;99.90;;;;;;5078399;28;20464;-67
2023/12/24 01:24:00;;;;;;;14.48;5.22;;;8.60;99.90;;;;;;5051955;28;20027;-65
2023/12/24 01:26:25;;;;;;;20.58;5.43;;;8.10;99.90;;;;;;5054391;28;20040;-67
2023/12/24 01:28:51;;;;;;;24.30;5.40;;;8.20;99.90;;;;;;5058460;28;20036;-69
2023/12/24 01:31:16;;;;;;;18.10;6.85;;;8.20;99.90;;;;;;5056132;28;20106;-66
2023/12/24 01:33:42;;;;;;;12.45;4.78;;;8.60;99.90;;;;;;5082299;28;20042;-67
2023/12/24 01:36:09;;;;;;;18.40;5.03;;;8.10;99.90;;;;;;5062387;28;20040;-68
2023/12/24 01:38:35;;;;;;;17.63;4.78;;;8.20;99.90;;;;;;5053984;28;20131;-70
2023/12/24 01:41:01;;;;;;;9.70;3.83;;;8.20;99.90;;;;;;5059506;28;20051;-67
2023/12/24 01:43:26;;;;;;;15.65;4.13;;;8.20;99.90;;;;;;5067851;28;20047;-69
2023/12/24 01:45:52;;;;;;;13.38;4.10;;;8.90;99.90;;;;;;5070125;28;20081;-68
2023/12/24 01:48:19;;;;;;;12.68;3.55;;;8.90;99.90;;;;;;5037554;28;20553;-69
2023/12/24 01:50:46;;;;;;;14.90;3.75;;;8.90;99.90;;;;;;5053407;28;20055;-67
2023/12/24 01:53:15;;;;;;;10.68;3.38;;;8.80;99.90;;;;;;5048533;28;20038;-67
2023/12/24 01:55:41;;;;;;;15.65;3.78;;;8.70;99.90;;;;;;5055143;28;20044;-68
2023/12/24 01:58:07;;;;;;;13.63;3.55;;;8.90;99.90;;;;;;5045688;28;20050;-66
2023/12/24 02:00:32;;;;;;;11.60;3.63;;;8.30;99.90;;;;;;5053791;28;20036;-67
2023/12/24 02:03:00;;;;;;;8.27;3.13;;;8.30;99.90;;;;;;5069891;28;20093;-67
2023/12/24 02:05:29;;;;;;;12.20;3.15;;;8.80;99.90;;;;;;5059360;28;20040;-69
2023/12/24 02:08:00;;;;;;;11.57;3.55;;;8.60;99.90;;;;;;5051924;28;20036;-66
2023/12/24 02:10:26;;;;;;;8.82;2.80;;;8.50;99.90;;;;;;5068494;28;20056;-67
2023/12/24 02:12:51;;;;;;;11.73;3.00;;;8.40;99.90;;;;;;5053627;28;20048;-69
2023/12/24 02:15:17;;;;;;;10.95;2.75;;;8.70;99.90;;;;;;5055720;28;20045;-65
2023/12/24 02:17:46;;;;;;;13.65;2.70;;;8.80;99.90;;;;;;5087436;28;20033;-68
2023/12/24 02:20:12;;;;;;;7.45;2.50;;;8.40;99.90;;;;;;5059694;28;20063;-67
2023/12/24 02:22:37;;;;;;;6.50;2.80;;;8.90;99.90;;;;;;5067325;28;20109;-68
2023/12/24 02:25:04;;;;;;;7.43;2.50;;;8.90;99.90;;;;;;5059009;28;20059;-68
2023/12/24 02:27:39;;;;;;;6.80;2.65;;;8.40;99.90;;;;;;5058506;28;20570;-68
2023/12/24 02:30:15;;;;;;;9.07;2.65;;;8.90;99.90;;;;;;5067797;28;20056;-68
2023/12/24 02:32:43;;;;;;;6.90;2.78;;;8.30;99.90;;;;;;5058025;28;20044;-66
2023/12/24 02:35:09;;;;;;;6.22;2.28;;;8.60;99.90;;;;;;5063891;28;20372;-70
2023/12/24 02:37:35;;;;;;;5.88;2.63;;;8.90;99.90;;;;;;5067746;28;20071;-67
2023/12/24 02:40:01;;;;;;;8.98;2.88;;;8.90;99.90;;;;;;5064571;28;20060;-72
2023/12/24 02:42:26;;;;;;;6.78;2.67;;;8.50;99.90;;;;;;5058782;28;20089;-73
2023/12/24 02:44:52;;;;;;;6.70;3.15;;;9.10;99.90;;;;;;5063569;28;20036;-68
2023/12/24 02:47:18;;;;;;;10.93;3.55;;;8.50;99.90;;;;;;5070463;28;20043;-68
2023/12/24 02:49:43;;;;;;;10.10;4.05;;;9.00;99.90;;;;;;5063018;28;20067;-67
2023/12/24 02:52:09;;;;;;;6.93;3.47;;;8.60;99.90;;;;;;5069244;28;20056;-68
2023/12/24 02:54:34;;;;;;;19.85;4.57;;;9.00;99.90;;;;;;5052000;28;20040;-66
2023/12/24 02:57:00;;;;;;;10.32;4.30;;;8.80;99.90;;;;;;5057074;28;20040;-68
2023/12/24 02:59:28;;;;;;;9.35;3.30;;;8.50;99.90;;;;;;5080376;28;20096;-66
2023/12/24 03:01:53;;;;;;;11.57;4.07;;;9.10;99.90;;;;;;5040110;28;20029;-69
2023/12/24 03:04:19;;;;;;;8.20;4.05;;;8.50;99.90;;;;;;5053173;28;20037;-69
2023/12/24 03:06:44;;;;;;;10.25;3.47;;;8.90;99.90;;;;;;5043152;28;20499;-69
2023/12/24 03:09:10;;;;;;;10.52;2.83;;;8.50;99.90;;;;;;5051222;28;20036;-70
2023/12/24 03:11:36;;;;;;;8.70;2.90;;;9.10;99.90;;;;;;5053774;28;20170;-68
2023/12/24 03:14:02;;;;;;;8.00;2.50;;;8.50;99.90;;;;;;5056248;28;20383;-68
2023/12/24 03:16:28;;;;;;;5.35;2.30;;;9.10;99.90;;;;;;5058534;28;20397;-67
2023/12/24 03:18:53;;;;;;;3.53;1.90;;;9.00;99.90;;;;;;5076948;28;20044;-67
2023/12/24 03:21:19;;;;;;;5.22;2.45;;;8.60;99.90;;;;;;5060370;28;20548;-69
2023/12/24 03:23:45;;;;;;;4.72;2.60;;;8.90;99.90;;;;;;5058909;28;20126;-68
2023/12/24 03:26:21;;;;;;;6.38;2.20;;;9.10;99.90;;;;;;5063328;28;20480;-67
2023/12/24 03:28:50;;;;;;;4.85;2.63;;;8.50;99.90;;;;;;5056847;28;20040;-68
2023/12/24 03:31:17;;;;;;;4.07;1.70;;;8.80;99.90;;;;;;5082671;28;20049;-69
2023/12/24 03:33:43;;;;;;;3.38;2.00;;;9.10;99.90;;;;;;5056567;28;20044;-70
2023/12/24 03:36:09;;;;;;;4.05;1.80;;;9.00;99.90;;;;;;5057906;28;20171;-67
2023/12/24 03:38:36;;;;;;;4.93;2.15;;;8.90;99.90;;;;;;5058462;28;20110;-67
2023/12/24 03:41:02;;;;;;;7.38;2.75;;;8.60;99.90;;;;;;5057988;28;20102;-67
2023/12/24 03:43:29;;;;;;;4.40;2.42;;;8.60;99.90;;;;;;5058196;28;20063;-66
2023/12/24 03:45:54;;;;;;;4.47;2.30;;;8.90;99.90;;;;;;5056108;28;20036;-66
2023/12/24 03:48:20;;;;;;;3.95;2.15;;;8.50;99.90;;;;;;5055597;28;20120;-68
2023/12/24 03:50:46;;;;;;;6.20;2.45;;;8.70;99.90;;;;;;5049595;28;20079;-67
2023/12/24 03:53:12;;;;;;;4.82;2.33;;;8.50;99.90;;;;;;5056246;28;20138;-66
2023/12/24 03:55:37;;;;;;;4.45;2.60;;;8.80;99.90;;;;;;5058315;28;20439;-67
2023/12/24 03:58:03;;;;;;;6.35;2.70;;;8.50;99.90;;;;;;5056293;28;20033;-68
2023/12/24 04:00:29;;;;;;;8.43;2.38;;;9.00;99.90;;;;;;5058447;28;20039;-69
2023/12/24 04:02:55;;;;;;;6.18;2.88;;;8.70;99.90;;;;;;5059410;28;20491;-67
2023/12/24 04:05:21;;;;;;;4.40;2.50;;;8.80;99.90;;;;;;5059070;28;20405;-68
2023/12/24 04:07:46;;;;;;;5.85;2.28;;;9.20;99.90;;;;;;5056653;28;20032;-67
2023/12/24 04:10:12;;;;;;;6.15;2.40;;;9.00;99.90;;;;;;5067788;28;20028;-68
2023/12/24 04:12:38;;;;;;;5.82;2.13;;;9.30;99.90;;;;;;5060313;28;20062;-70
2023/12/24 04:15:07;;;;;;;3.80;2.08;;;9.10;99.90;;;;;;5084072;28;20036;-67
2023/12/24 04:17:36;;;;;;;6.53;2.50;;;8.60;99.90;;;;;;5054909;28;20075;-68
2023/12/24 04:20:04;;;;;;;7.22;2.60;;;9.20;99.90;;;;;;5089234;28;20060;-67
2023/12/24 04:22:30;;;;;;;6.95;2.00;;;9.20;99.90;;;;;;5078839;28;20040;-67
2023/12/24 04:24:57;;;;;;;6.05;2.42;;;8.90;99.90;;;;;;5060680;28;20039;-68
2023/12/24 04:27:23;;;;;;;4.32;1.80;;;8.80;99.90;;;;;;5057861;28;20048;-67
2023/12/24 04:29:49;;;;;;;4.82;2.28;;;8.70;99.90;;;;;;5060069;28;20063;-67
2023/12/24 04:32:16;;;;;;;3.45;1.98;;;8.60;99.90;;;;;;5055400;28;20044;-67
2023/12/24 04:34:42;;;;;;;3.17;1.60;;;8.80;99.90;;;;;;5058670;28;20047;-67
2023/12/24 04:37:08;;;;;;;3.50;1.70;;;9.00;99.90;;;;;;5057135;28;20044;-67
2023/12/24 04:39:33;;;;;;;6.40;1.80;;;8.80;99.90;;;;;;5052445;28;20627;-67
2023/12/24 04:41:59;;;;;;;4.45;1.80;;;9.30;99.90;;;;;;5059327;28;20495;-68
2023/12/24 04:44:25;;;;;;;3.70;1.70;;;9.20;99.90;;;;;;5061113;28;20112;-67
2023/12/24 04:46:50;;;;;;;2.78;1.40;;;9.10;99.90;;;;;;5058599;28;20436;-67
2023/12/24 04:49:16;;;;;;;3.83;1.65;;;9.10;99.90;;;;;;5045603;28;20044;-66
2023/12/24 04:51:41;;;;;;;2.35;1.70;;;9.40;99.90;;;;;;5057979;28;20041;-67
2023/12/24 04:54:07;;;;;;;4.78;2.03;;;9.20;99.90;;;;;;5074682;28;20083;-67
2023/12/24 04:56:33;;;;;;;3.95;1.50;;;9.30;99.90;;;;;;5039844;28;20041;-66
2023/12/24 04:59:01;;;;;;;3.08;1.60;;;8.90;99.90;;;;;;5064587;28;20146;-67
2023/12/24 05:01:27;;;;;;;3.33;1.65;;;8.90;99.90;;;;;;5055637;28;21732;-67
2023/12/24 05:03:53;;;;;;;2.70;1.60;;;9.00;99.90;;;;;;5053712;28;20133;-67
2023/12/24 05:06:18;;;;;;;3.78;1.60;;;9.20;99.90;;;;;;5054488;28;20471;-67
2023/12/24 05:08:45;;;;;;;5.00;2.00;;;8.90;99.90;;;;;;5073393;28;20075;-69
2023/12/24 05:11:10;;;;;;;2.53;1.63;;;9.00;99.90;;;;;;5055376;28;20158;-67
2023/12/24 05:13:36;;;;;;;3.47;1.50;;;9.20;99.90;;;;;;5059391;28;20518;-67
2023/12/24 05:16:03;;;;;;;2.28;1.55;;;9.40;99.90;;;;;;5058444;28;20488;-67
2023/12/24 05:18:29;;;;;;;2.65;1.92;;;8.90;99.90;;;;;;5066737;28;20036;-67
2023/12/24 05:20:55;;;;;;;3.42;1.88;;;8.90;99.90;;;;;;5063284;28;20115;-68
2023/12/24 05:23:21;;;;;;;3.75;1.98;;;9.30;99.90;;;;;;5063368;28;20154;-66
2023/12/24 05:25:47;;;;;;;4.22;2.00;;;8.90;99.90;;;;;;5067705;28;20602;-66
2023/12/24 05:28:13;;;;;;;5.13;2.00;;;9.00;99.90;;;;;;5074926;28;20098;-66
2023/12/24 05:30:39;;;;;;;4.40;2.30;;;8.80;99.90;;;;;;5051081;28;20143;-67
2023/12/24 05:33:04;;;;;;;5.68;2.50;;;9.50;99.90;;;;;;5058774;28;20124;-66
2023/12/24 05:35:30;;;;;;;5.93;2.10;;;8.80;99.90;;;;;;5048002;28;20055;-66
2023/12/24 05:37:56;;;;;;;5.28;2.40;;;9.40;99.90;;;;;;5056135;28;20040;-68
2023/12/24 05:40:21;;;;;;;3.25;2.45;;;9.00;99.90;;;;;;5051833;28;20501;-67
2023/12/24 05:42:47;;;;;;;4.93;2.35;;;9.50;99.90;;;;;;5055863;28;20040;-66
2023/12/24 05:45:13;;;;;;;6.22;2.42;;;9.60;99.90;;;;;;5062000;28;20075;-66
2023/12/24 05:47:38;;;;;;;7.43;3.63;;;9.40;99.90;;;;;;5051848;28;20132;-67
2023/12/24 05:50:08;;;;;;;4.57;2.42;;;9.20;99.90;;;;;;5054726;28;20763;-66
2023/12/24 05:52:35;;;;;;;8.73;2.70;;;9.10;99.90;;;;;;5054652;28;20036;-67
2023/12/24 05:55:01;;;;;;;5.93;2.83;;;9.00;99.90;;;;;;5053192;28;20037;-67
2023/12/24 05:57:26;;;;;;;4.72;2.60;;;9.00;99.90;;;;;;5053028;28;20051;-67
2023/12/24 05:59:52;;;;;;;6.78;2.80;;;9.70;99.90;;;;;;5055703;28;20037;-67
2023/12/24 06:02:18;;;;;;;6.07;2.90;;;9.40;99.90;;;;;;5057339;28;20041;-68
2023/12/24 06:04:44;;;;;;;4.72;2.80;;;9.30;99.90;;;;;;5049636;28;20036;-68
2023/12/24 06:07:09;;;;;;;7.03;2.70;;;9.10;99.90;;;;;;5048980;28;20045;-67
2023/12/24 06:09:35;;;;;;;6.30;2.97;;;9.30;99.90;;;;;;5053316;28;20060;-68
2023/12/24 06:12:01;;;;;;;9.40;3.30;;;9.60;99.90;;;;;;5053210;28;20400;-67
2023/12/24 06:14:26;;;;;;;5.25;3.13;;;9.30;99.90;;;;;;5050889;28;20044;-68
2023/12/24 06:16:52;;;;;;;5.90;2.97;;;9.20;99.90;;;;;;5050833;28;20044;-67
2023/12/24 06:19:18;;;;;;;8.30;3.35;;;9.60;99.90;;;;;;5051035;28;20080;-67
2023/12/24 06:21:43;;;;;;;8.50;3.22;;;9.70;99.90;;;;;;5059806;28;20393;-67
2023/12/24 06:24:09;;;;;;;8.68;3.78;;;9.60;99.90;;;;;;5051095;28;20036;-68
2023/12/24 06:26:35;;;;;;;9.40;3.40;;;9.70;99.90;;;;;;5034564;28;20044;-66
2023/12/24 06:29:00;;;;;;;8.23;3.80;;;9.70;99.90;;;;;;5054876;28;20139;-69
2023/12/24 06:31:26;;;;;;;8.88;3.97;;;9.70;99.90;;;;;;5054256;28;20076;-68
2023/12/24 06:33:51;;;;;;;8.98;4.30;;;9.80;99.90;;;;;;5058742;28;20052;-67
2023/12/24 06:36:18;;;;;;;10.00;4.38;;;9.20;99.90;;;;;;5030834;28;20132;-67
2023/12/24 06:38:44;;;;;;;12.88;4.15;;;9.20;99.90;;;;;;5048531;28;20033;-67
2023/12/24 06:41:09;;;;;;;11.77;4.72;;;9.80;99.90;;;;;;5053642;28;20127;-67
2023/12/24 06:43:37;;;;;;;11.50;4.60;;;9.20;99.90;;;;;;5057558;28;20133;-68
2023/12/24 06:46:03;;;;;;;11.07;4.90;;;9.70;99.90;;;;;;5060149;28;20428;-68
2023/12/24 06:48:28;;;;;;;18.73;5.93;;;9.30;99.90;;;;;;5061816;28;20044;-67
2023/12/24 06:50:54;;;;;;;17.25;5.90;;;9.70;99.90;;;;;;5049851;28;20079;-67
2023/12/24 06:53:19;;;;;;;15.52;5.78;;;9.50;99.90;;;;;;5060561;28;20446;-67
2023/12/24 06:55:45;;;;;;;13.07;5.35;;;9.50;99.90;;;;;;5057116;28;20120;-67
2023/12/24 06:58:11;;;;;;;15.88;6.38;;;9.80;99.90;;;;;;5063429;28;20029;-68
2023/12/24 07:00:36;;;;;;;19.08;6.22;;;10.00;99.90;;;;;;5058725;28;20091;-67
2023/12/24 07:03:02;;;;;;;20.23;6.55;;;10.00;99.90;;;;;;5056206;28;20123;-71
2023/12/24 07:05:34;;;;;;;18.95;6.75;;;9.70;99.90;;;;;;5060120;28;20904;-67
2023/12/24 07:07:59;;;;;;;21.40;6.65;;;9.50;99.90;;;;;;5055389;28;20431;-67
2023/12/24 07:10:26;;;;;;;20.58;6.93;;;10.00;99.90;;;;;;5046767;28;20044;-67
2023/12/24 07:12:51;;;;;;;27.63;7.28;;;9.40;99.90;;;;;;5071535;28;20155;-68
2023/12/24 07:15:17;;;;;;;23.75;7.45;;;9.40;99.90;;;;;;5068888;28;20045;-67
2023/12/24 07:17:43;;;;;;;25.38;7.30;;;10.00;99.90;;;;;;5062836;28;20059;-66
2023/12/24 07:20:09;;;;;;;19.42;5.95;;;9.70;99.90;;;;;;5073207;28;20147;-68
2023/12/24 07:22:35;;;;;;;18.73;6.45;;;9.70;99.90;;;;;;5063941;28;20032;-68
2023/12/24 07:25:00;;;;;;;19.10;6.75;;;10.30;99.90;;;;;;5065034;28;20051;-68
2023/12/24 07:27:26;;;;;;;19.95;6.80;;;10.30;99.90;;;;;;5064903;28;20353;-68
2023/12/24 07:29:52;;;;;;;19.88;8.93;;;9.80;99.90;;;;;;5051914;28;20053;-67
2023/12/24 07:32:17;;;;;;;23.25;7.75;;;9.90;99.90;;;;;;5059842;28;20155;-68
2023/12/24 07:34:43;;;;;;;24.70;6.72;;;9.80;99.90;;;;;;5067581;28;20418;-66
2023/12/24 07:37:08;;;;;;;16.13;6.50;;;9.80;99.90;;;;;;5063722;28;20338;-68
2023/12/24 07:39:34;;;;;;;18.90;6.25;;;10.00;99.90;;;;;;5061645;28;20067;-67
2023/12/24 07:42:00;;;;;;;14.65;6.10;;;10.20;99.90;;;;;;5068585;28;20051;-67
2023/12/24 07:44:25;;;;;;;17.75;7.07;;;10.20;99.90;;;;;;5067759;28;20043;-68
2023/12/24 07:46:52;;;;;;;17.35;5.85;;;10.30;99.90;;;;;;5048549;28;20059;-67
2023/12/24 07:49:17;;;;;;;20.33;6.20;;;10.10;99.90;;;;;;5070429;28;20048;-67
2023/12/24 07:51:43;;;;;;;17.98;6.03;;;10.10;99.90;;;;;;5048042;28;20033;-67
2023/12/24 07:54:10;;;;;;;19.83;6.43;;;10.20;99.90;;;;;;5058546;28;20045;-66
2023/12/24 07:56:36;;;;;;;21.85;6.70;;;10.10;99.90;;;;;;5052096;28;20515;-67
2023/12/24 07:59:01;;;;;;;21.75;6.72;;;9.90;99.90;;;;;;5061890;28;20033;-69
2023/12/24 08:01:27;;;;;;;19.83;6.32;;;10.30;99.90;;;;;;5051751;28;20074;-67
2023/12/24 08:03:53;;;;;;;20.98;7.40;;;10.00;99.90;;;;;;5062068;28;20116;-67
2023/12/24 08:06:20;;;;;;;22.70;7.53;;;10.20;99.90;;;;;;5058808;28;20056;-68
2023/12/24 08:08:46;;;;;;;26.23;7.07;;;10.00;99.90;;;;;;5070411;28;20033;-67
2023/12/24 08:11:12;;;;;;;24.85;8.18;;;10.60;99.90;;;;;;5072643;28;20802;-66
2023/12/24 08:13:37;;;;;;;24.27;7.93;;;10.40;99.90;;;;;;5066568;28;20033;-67
2023/12/24 08:16:03;;;;;;;26.65;7.63;;;10.30;99.90;;;;;;5063036;28;20061;-66
2023/12/24 08:18:29;;;;;;;18.88;7.97;;;10.40;99.90;;;;;;5054533;28;20381;-66
2023/12/24 08:20:54;;;;;;;20.55;7.72;;;10.50;99.90;;;;;;5034914;28;20052;-67
2023/12/24 08:23:20;;;;;;;21.20;8.38;;;10.20;99.90;;;;;;5056448;28;20480;-66
2023/12/24 08:25:46;;;;;;;21.83;9.88;;;10.10;99.90;;;;;;5061548;28;20094;-65
2023/12/24 08:28:12;;;;;;;35.70;10.05;;;10.10;99.90;;;;;;5044372;28;20063;-66
2023/12/24 08:30:39;;;;;;;30.65;8.07;;;10.60;99.90;;;;;;5053746;28;20071;-67
2023/12/24 08:33:06;;;;;;;25.17;8.63;;;10.10;99.90;;;;;;5071913;28;20045;-68
2023/12/24 08:35:32;;;;;;;27.88;8.48;;;10.40;99.90;;;;;;5067750;28;20048;-67
2023/12/24 08:37:58;;;;;;;23.90;8.43;;;10.30;99.90;;;;;;5066695;28;20115;-67
2023/12/24 08:40:27;;;;;;;23.70;8.63;;;10.50;99.90;;;;;;5061646;28;20124;-67
2023/12/24 08:42:53;;;;;;;27.15;8.90;;;10.50;99.90;;;;;;5071987;28;20040;-68
2023/12/24 08:45:19;;;;;;;25.75;8.50;;;10.30;99.90;;;;;;5065603;28;20042;-67
2023/12/24 08:47:44;;;;;;;20.15;8.02;;;10.10;99.90;;;;;;5069697;28;20136;-67
2023/12/24 08:50:10;;;;;;;26.02;9.20;;;10.10;99.90;;;;;;5066028;28;20067;-67
2023/12/24 08:52:36;;;;;;;29.20;8.85;;;9.90;99.90;;;;;;5064777;28;20036;-68
2023/12/24 08:55:02;;;;;;;27.92;8.82;;;10.60;99.90;;;;;;5070023;28;20036;-66
2023/12/24 08:57:28;;;;;;;27.60;8.30;;;10.20;99.90;;;;;;5065472;28;20126;-67
2023/12/24 08:59:53;;;;;;;20.30;7.63;;;10.60;99.90;;;;;;5067155;28;20374;-67
2023/12/24 09:02:19;;;;;;;25.45;7.90;;;10.20;99.90;;;;;;5061731;28;20807;-67
2023/12/24 09:04:48;;;;;;;28.77;8.35;;;10.20;99.90;;;;;;5058881;28;20040;-67
2023/12/24 09:07:16;;;;;;;20.60;7.45;;;10.70;99.90;;;;;;5049026;28;20124;-68
2023/12/24 09:09:41;;;;;;;25.25;7.85;;;10.10;99.90;;;;;;5036045;28;20033;-68
2023/12/24 09:12:07;;;;;;;26.52;7.97;;;10.70;99.90;;;;;;5036004;28;20139;-68
2023/12/24 09:14:33;;;;;;;25.95;8.38;;;10.70;99.90;;;;;;5060156;28;20075;-67
2023/12/24 09:16:59;;;;;;;29.35;8.13;;;10.70;99.90;;;;;;5045960;28;20037;-67
2023/12/24 09:19:25;;;;;;;24.90;6.93;;;10.40;99.90;;;;;;5059589;28;20461;-68
2023/12/24 09:21:50;;;;;;;29.05;7.68;;;10.10;99.90;;;;;;5058086;28;20043;-68
2023/12/24 09:24:16;;;;;;;28.23;7.68;;;10.50;99.90;;;;;;5052467;28;20037;-66
2023/12/24 09:26:42;;;;;;;24.02;6.63;;;10.00;99.90;;;;;;5049887;28;20044;-67
2023/12/24 09:29:07;;;;;;;25.90;7.15;;;10.00;99.90;;;;;;5043250;28;20159;-69
2023/12/24 09:31:39;;;;;;;24.45;7.35;;;10.00;99.90;;;;;;5061817;27;20455;-66
2023/12/24 09:34:07;;;;;;;21.60;6.85;;;10.00;99.90;;;;;;5050565;28;20064;-65
2023/12/24 09:36:33;;;;;;;20.83;5.95;;;10.10;99.90;;;;;;5048745;28;20178;-66
2023/12/24 09:38:59;;;;;;;18.73;6.13;;;10.60;99.90;;;;;;5057311;28;20120;-65
2023/12/24 09:41:24;;;;;;;20.05;5.18;;;10.90;99.90;;;;;;5060099;28;20041;-65
2023/12/24 09:43:50;;;;;;;22.63;5.70;;;10.60;99.90;;;;;;5048596;28;20032;-65
2023/12/24 09:46:15;;;;;;;20.35;5.93;;;10.20;99.90;;;;;;5055477;28;20190;-66
2023/12/24 09:48:41;;;;;;;18.95;6.68;;;10.80;99.90;;;;;;5049021;28;20592;-66
2023/12/24 09:51:08;;;;;;;23.42;6.28;;;10.80;99.90;;;;;;5057514;28;20489;-66
2023/12/24 09:53:33;;;;;;;24.25;6.65;;;10.40;99.90;;;;;;5056736;28;20568;-66
2023/12/24 09:55:59;;;;;;;19.90;6.78;;;10.80;99.90;;;;;;5048049;28;20040;-65
2023/12/24 09:58:25;;;;;;;32.00;6.78;;;10.20;99.90;;;;;;5051125;28;20094;-66
2023/12/24 10:00:50;;;;;;;21.02;6.85;;;10.50;99.90;;;;;;5050165;28;20091;-69
2023/12/24 10:03:16;;;;;;;23.48;6.82;;;10.80;99.90;;;;;;5048610;28;20032;-67
2023/12/24 10:06:04;;;;;;;21.42;7.10;;;10.70;99.90;;;;;;5049710;28;20072;-66
2023/12/24 10:08:31;;;;;;;26.30;7.45;;;10.40;99.90;;;;;;5050948;28;20090;-65
2023/12/24 10:10:57;;;;;;;22.92;7.07;;;10.40;99.90;;;;;;5056941;28;20044;-65
2023/12/24 10:13:23;;;;;;;26.48;6.65;;;10.70;99.90;;;;;;5051583;28;20041;-66
2023/12/24 10:16:05;;;;;;;26.05;7.22;;;10.70;99.90;;;;;;5045715;28;20044;-66
2023/12/24 10:18:31;;;;;;;26.88;6.90;;;10.80;99.90;;;;;;5051509;28;20094;-68
2023/12/24 10:21:05;;;;;;;18.35;6.15;;;11.00;99.90;;;;;;5048578;28;20128;-64
2023/12/24 10:23:31;;;;;;;24.88;6.35;;;10.90;99.90;;;;;;5042541;28;20506;-67
2023/12/24 10:26:05;;;;;;;20.65;6.07;;;10.30;99.90;;;;;;5030045;28;20454;-65
2023/12/24 10:28:32;;;;;;;16.95;6.03;;;10.90;99.90;;;;;;5057353;28;20420;-66
2023/12/24 10:31:10;;;;;;;21.60;6.05;;;10.40;99.90;;;;;;5053068;28;20045;-66
2023/12/24 10:33:37;;;;;;;18.65;5.85;;;10.60;99.90;;;;;;5051169;28;20480;-68
2023/12/24 10:36:04;;;;;;;20.50;5.72;;;10.80;99.90;;;;;;5029870;28;20065;-67
2023/12/24 10:38:30;;;;;;;16.10;5.28;;;10.60;99.90;;;;;;5061788;28;20087;-66
2023/12/24 10:40:56;;;;;;;23.83;5.50;;;11.10;99.90;;;;;;5048415;28;20033;-67
2023/12/24 10:43:22;;;;;;;19.45;6.10;;;10.70;99.90;;;;;;5042912;28;20060;-67
2023/12/24 10:45:48;;;;;;;17.27;5.88;;;10.50;99.90;;;;;;5047676;28;20037;-67
2023/12/24 10:48:14;;;;;;;24.20;6.07;;;10.70;99.90;;;;;;5031809;28;20041;-67
2023/12/24 10:50:40;;;;;;;19.83;5.05;;;10.60;99.90;;;;;;5033599;28;20073;-69
2023/12/24 10:53:05;;;;;;;16.60;5.43;;;10.80;99.90;;;;;;5013918;28;20564;-68
2023/12/24 10:55:34;;;;;;;21.15;4.90;;;10.80;99.90;;;;;;5022711;28;20075;-66
2023/12/24 10:58:28;;;;;;;20.17;5.05;;;10.70;99.90;;;;;;5046579;28;20858;-67
2023/12/24 11:01:02;;;;;;;17.63;5.13;;;10.90;99.90;;;;;;5015685;28;20398;-67
2023/12/24 11:03:48;;;;;;;17.88;5.40;;;10.60;99.90;;;;;;5036003;28;20098;-68
2023/12/24 11:06:40;;;;;;;13.95;4.40;;;11.10;99.90;;;;;;5029879;28;20091;-68
2023/12/24 11:09:19;;;;;;;20.27;5.82;;;10.60;99.90;;;;;;5036545;28;20053;-68
2023/12/24 11:11:52;;;;;;;14.38;5.25;;;10.70;99.90;;;;;;5036039;28;20045;-66
2023/12/24 11:14:45;;;;;;;12.23;3.95;;;10.80;99.90;;;;;;5039717;28;20040;-67
2023/12/24 11:17:31;;;;;;;14.60;4.20;;;10.80;99.90;;;;;;5031956;28;20037;-72
2023/12/24 11:20:16;;;;;;;15.00;3.60;;;10.90;99.90;;;;;;5044405;28;20137;-67
2023/12/24 11:23:02;;;;;;;12.00;3.88;;;11.10;99.90;;;;;;5031362;28;20103;-69
2023/12/24 11:25:50;;;;;;;11.93;3.60;;;10.90;99.90;;;;;;5015000;28;20076;-65
2023/12/24 11:28:25;;;;;;;18.17;4.28;;;10.80;99.90;;;;;;5038829;28;20504;-68
2023/12/24 11:30:51;;;;;;;13.88;4.65;;;11.00;99.90;;;;;;5043531;28;20460;-67
2023/12/24 11:33:28;;;;;;;14.57;3.70;;;10.90;99.90;;;;;;5050124;28;20051;-68
2023/12/24 11:36:07;;;;;;;14.45;4.20;;;11.00;99.90;;;;;;5050048;28;20420;-69
2023/12/24 11:38:33;;;;;;;14.60;3.90;;;11.10;99.90;;;;;;5031254;28;20453;-68
2023/12/24 11:41:10;;;;;;;16.42;3.70;;;11.10;99.90;;;;;;5049430;28;20069;-68
2023/12/24 11:43:37;;;;;;;18.35;4.50;;;10.90;99.90;;;;;;5048280;28;20056;-71
2023/12/24 11:46:04;;;;;;;15.43;4.32;;;11.20;99.90;;;;;;5015636;28;20072;-70
2023/12/24 11:48:32;;;;;;;13.60;3.42;;;10.90;99.90;;;;;;5041008;28;20068;-70
2023/12/24 11:51:07;;;;;;;13.50;4.57;;;10.80;99.90;;;;;;5042412;28;20049;-72
2023/12/24 11:53:35;;;;;;;12.63;3.60;;;11.10;99.90;;;;;;5027468;28;20037;-69
2023/12/24 11:56:15;;;;;;;11.18;4.50;;;11.10;99.90;;;;;;5035461;28;20124;-67
2023/12/24 11:58:48;;;;;;;13.90;3.78;;;11.10;99.90;;;;;;5047711;28;20037;-68
2023/12/24 12:01:19;;;;;;;15.23;3.75;;;11.00;99.90;;;;;;5034941;28;20448;-68
2023/12/24 12:03:44;;;;;;;10.43;4.07;;;10.90;99.90;;;;;;5038484;28;20548;-67
2023/12/24 12:06:10;;;;;;;13.48;3.92;;;10.80;99.90;;;;;;5029955;28;20045;-68
2023/12/24 12:08:35;;;;;;;13.77;4.00;;;11.20;99.90;;;;;;5014053;28;20400;-68
2023/12/24 12:11:01;;;;;;;13.02;5.13;;;10.90;99.90;;;;;;5022411;28;20037;-69
2023/12/24 12:13:27;;;;;;;12.98;3.92;;;11.10;99.90;;;;;;5021474;28;20040;-66
2023/12/24 12:15:53;;;;;;;15.75;3.75;;;11.10;99.90;;;;;;5029536;28;20033;-68
2023/12/24 12:18:19;;;;;;;17.50;4.70;;;10.90;99.90;;;;;;5037997;28;20037;-68
2023/12/24 12:20:45;;;;;;;12.82;4.35;;;10.90;99.90;;;;;;5035882;28;20043;-69
2023/12/24 12:23:12;;;;;;;14.20;3.47;;;10.90;99.90;;;;;;5029077;28;20527;-67
2023/12/24 12:25:38;;;;;;;12.75;3.88;;;11.20;99.90;;;;;;5031921;28;20434;-67
2023/12/24 12:28:04;;;;;;;18.10;3.67;;;11.30;99.90;;;;;;5015219;28;20072;-68
2023/12/24 12:30:30;;;;;;;15.40;4.25;;;11.00;99.90;;;;;;5013902;28;20132;-68
2023/12/24 12:32:55;;;;;;;15.73;4.38;;;11.00;99.90;;;;;;5038448;28;20037;-71
2023/12/24 12:35:22;;;;;;;10.68;3.58;;;11.30;99.90;;;;;;5035331;28;20079;-69
2023/12/24 12:37:47;;;;;;;15.32;4.80;;;11.20;99.90;;;;;;5028721;28;20052;-67
2023/12/24 12:40:13;;;;;;;13.85;3.95;;;11.00;99.90;;;;;;5030301;28;20045;-67
2023/12/24 12:42:39;;;;;;;15.25;4.32;;;10.90;99.90;;;;;;5033057;28;20055;-69
2023/12/24 12:45:05;;;;;;;14.82;3.47;;;11.00;99.90;;;;;;5040522;28;20037;-68